createdAt,value
2018-05-27T00:00:01.778Z,474
2018-05-27T00:01:09.014Z,474
2018-05-27T00:02:16.244Z,475
2018-05-27T00:03:23.484Z,476
2018-05-27T00:04:30.695Z,475
2018-05-27T00:05:37.949Z,475
2018-05-27T00:06:45.164Z,475
2018-05-27T00:07:52.609Z,475
2018-05-27T00:08:59.841Z,475
2018-05-27T00:10:07.059Z,475
2018-05-27T00:11:14.267Z,475
2018-05-27T00:12:21.475Z,476
2018-05-27T00:13:28.704Z,476
2018-05-27T00:14:35.923Z,477
2018-05-27T00:15:43.135Z,475
2018-05-27T00:16:50.379Z,475
2018-05-27T00:17:57.598Z,475
2018-05-27T00:19:04.843Z,476
2018-05-27T00:20:12.045Z,475
2018-05-27T00:21:19.492Z,475
2018-05-27T00:22:26.426Z,474
2018-05-27T00:23:33.575Z,474
2018-05-27T00:24:40.784Z,474
2018-05-27T00:25:47.995Z,474
2018-05-27T00:26:54.926Z,474
2018-05-27T00:28:02.162Z,472
2018-05-27T00:29:09.101Z,472
2018-05-27T00:30:16.315Z,473
2018-05-27T00:31:23.531Z,474
2018-05-27T00:32:30.760Z,473
2018-05-27T00:33:37.969Z,473
2018-05-27T00:34:45.189Z,472
2018-05-27T00:35:52.403Z,473
2018-05-27T00:36:59.628Z,473
2018-05-27T00:38:06.855Z,473
2018-05-27T00:39:14.103Z,473
2018-05-27T00:40:21.339Z,474
2018-05-27T00:41:28.564Z,474
2018-05-27T00:42:35.782Z,474
2018-05-27T00:43:42.990Z,474
2018-05-27T00:44:49.922Z,474
2018-05-27T00:45:57.132Z,473
2018-05-27T00:47:04.351Z,474
2018-05-27T00:48:11.791Z,474
2018-05-27T00:49:19.010Z,474
2018-05-27T00:50:26.235Z,473
2018-05-27T00:51:33.467Z,473
2018-05-27T00:52:40.404Z,473
2018-05-27T00:53:47.636Z,472
2018-05-27T00:54:54.844Z,473
2018-05-27T00:56:02.085Z,473
2018-05-27T00:57:09.300Z,472
2018-05-27T00:58:16.511Z,473
2018-05-27T00:59:23.759Z,473
2018-05-27T01:00:30.984Z,473
2018-05-27T01:01:38.226Z,474
2018-05-27T01:02:45.172Z,474
2018-05-27T01:03:52.621Z,474
2018-05-27T01:04:59.838Z,474
2018-05-27T01:06:07.051Z,474
2018-05-27T01:07:14.265Z,474
2018-05-27T01:08:21.497Z,473
2018-05-27T01:09:28.706Z,473
2018-05-27T01:10:35.954Z,474
2018-05-27T01:11:43.168Z,474
2018-05-27T01:12:50.595Z,473
2018-05-27T01:13:57.525Z,474
2018-05-27T01:15:04.776Z,474
2018-05-27T01:16:11.729Z,474
2018-05-27T01:17:18.657Z,473
2018-05-27T01:18:25.884Z,473
2018-05-27T01:19:33.091Z,473
2018-05-27T01:20:40.304Z,473
2018-05-27T01:21:47.511Z,473
2018-05-27T01:22:54.729Z,473
2018-05-27T01:24:01.878Z,473
2018-05-27T01:25:09.120Z,472
2018-05-27T01:26:16.567Z,472
2018-05-27T01:27:23.786Z,473
2018-05-27T01:28:31.032Z,472
2018-05-27T01:29:38.244Z,472
2018-05-27T01:30:45.174Z,473
2018-05-27T01:31:52.382Z,472
2018-05-27T01:32:59.614Z,473
2018-05-27T01:34:06.837Z,472
2018-05-27T01:35:14.049Z,472
2018-05-27T01:36:21.279Z,473
2018-05-27T01:37:28.506Z,473
2018-05-27T01:38:35.702Z,473
2018-05-27T01:39:42.933Z,473
2018-05-27T01:40:50.144Z,474
2018-05-27T01:41:57.357Z,474
2018-05-27T01:43:04.586Z,475
2018-05-27T01:44:11.821Z,475
2018-05-27T01:45:19.047Z,476
2018-05-27T01:46:25.998Z,476
2018-05-27T01:47:33.227Z,476
2018-05-27T01:48:40.474Z,476
2018-05-27T01:49:47.722Z,476
2018-05-27T01:50:54.944Z,476
2018-05-27T01:52:02.163Z,474
2018-05-27T01:53:09.605Z,474
2018-05-27T01:54:16.809Z,473
2018-05-27T01:55:24.232Z,474
2018-05-27T01:56:31.444Z,473
2018-05-27T01:57:38.677Z,473
2018-05-27T01:58:45.635Z,472
2018-05-27T01:59:52.605Z,472
2018-05-27T02:00:59.823Z,472
2018-05-27T02:02:07.071Z,472
2018-05-27T02:03:14.283Z,471
2018-05-27T02:04:21.511Z,471
2018-05-27T02:05:28.732Z,472
2018-05-27T02:06:36.156Z,472
2018-05-27T02:07:43.362Z,473
2018-05-27T02:08:50.594Z,474
2018-05-27T02:09:57.804Z,474
2018-05-27T02:11:05.032Z,474
2018-05-27T02:12:12.239Z,474
2018-05-27T02:13:33.821Z,474
2018-05-27T02:14:41.030Z,474
2018-05-27T02:15:47.962Z,474
2018-05-27T02:16:55.199Z,475
2018-05-27T02:18:02.420Z,475
2018-05-27T02:19:09.620Z,475
2018-05-27T02:20:16.830Z,476
2018-05-27T02:21:24.034Z,476
2018-05-27T02:22:31.243Z,476
2018-05-27T02:23:38.452Z,476
2018-05-27T02:24:45.662Z,476
2018-05-27T02:25:52.926Z,476
2018-05-27T02:27:00.143Z,476
2018-05-27T02:28:07.378Z,477
2018-05-27T02:29:14.335Z,476
2018-05-27T02:30:21.552Z,476
2018-05-27T02:31:28.776Z,476
2018-05-27T02:32:35.716Z,476
2018-05-27T02:33:42.928Z,476
2018-05-27T02:34:50.150Z,476
2018-05-27T02:35:57.395Z,475
2018-05-27T02:37:04.598Z,475
2018-05-27T02:38:11.811Z,474
2018-05-27T02:39:18.777Z,475
2018-05-27T02:40:25.993Z,476
2018-05-27T02:41:33.219Z,475
2018-05-27T02:42:40.426Z,476
2018-05-27T02:43:47.385Z,477
2018-05-27T02:44:54.521Z,476
2018-05-27T02:46:01.752Z,477
2018-05-27T02:47:08.973Z,477
2018-05-27T02:48:15.927Z,477
2018-05-27T02:49:23.152Z,478
2018-05-27T02:50:30.356Z,477
2018-05-27T02:51:37.581Z,478
2018-05-27T02:52:44.791Z,479
2018-05-27T02:53:52.009Z,478
2018-05-27T02:54:59.228Z,478
2018-05-27T02:56:06.447Z,479
2018-05-27T02:57:13.403Z,479
2018-05-27T02:58:20.631Z,478
2018-05-27T02:59:27.870Z,478
2018-05-27T03:00:35.317Z,479
2018-05-27T03:01:42.557Z,479
2018-05-27T03:02:49.996Z,478
2018-05-27T03:03:57.203Z,478
2018-05-27T03:05:04.442Z,478
2018-05-27T03:06:11.649Z,478
2018-05-27T03:07:19.094Z,478
2018-05-27T03:08:26.307Z,478
2018-05-27T03:09:33.535Z,477
2018-05-27T03:10:40.474Z,477
2018-05-27T03:11:47.697Z,477
2018-05-27T03:12:54.905Z,477
2018-05-27T03:14:02.118Z,477
2018-05-27T03:15:09.052Z,477
2018-05-27T03:16:16.280Z,477
2018-05-27T03:17:23.486Z,476
2018-05-27T03:18:30.707Z,477
2018-05-27T03:19:37.918Z,476
2018-05-27T03:20:44.854Z,476
2018-05-27T03:21:52.066Z,476
2018-05-27T03:22:59.276Z,477
2018-05-27T03:24:06.491Z,477
2018-05-27T03:25:13.700Z,477
2018-05-27T03:26:20.904Z,477
2018-05-27T03:27:42.764Z,477
2018-05-27T03:28:49.992Z,477
2018-05-27T03:29:57.209Z,476
2018-05-27T03:31:04.634Z,475
2018-05-27T03:32:12.218Z,475
2018-05-27T03:33:19.426Z,475
2018-05-27T03:34:26.651Z,474
2018-05-27T03:35:33.849Z,474
2018-05-27T03:36:41.065Z,474
2018-05-27T03:37:48.273Z,474
2018-05-27T03:38:55.492Z,474
2018-05-27T03:40:02.729Z,473
2018-05-27T03:41:09.661Z,473
2018-05-27T03:42:16.601Z,474
2018-05-27T03:43:23.557Z,474
2018-05-27T03:44:30.763Z,474
2018-05-27T03:45:37.436Z,474
2018-05-27T03:46:44.370Z,474
2018-05-27T03:47:51.582Z,474
2018-05-27T03:48:58.786Z,474
2018-05-27T03:50:06.001Z,475
2018-05-27T03:51:12.928Z,475
2018-05-27T03:52:20.139Z,475
2018-05-27T03:53:27.345Z,475
2018-05-27T03:54:34.274Z,475
2018-05-27T03:55:41.487Z,475
2018-05-27T03:56:48.705Z,476
2018-05-27T03:57:55.911Z,476
2018-05-27T03:59:03.121Z,476
2018-05-27T04:00:10.333Z,476
2018-05-27T04:01:17.265Z,476
2018-05-27T04:02:24.485Z,476
2018-05-27T04:03:31.704Z,476
2018-05-27T04:04:38.923Z,476
2018-05-27T04:05:46.134Z,476
2018-05-27T04:06:53.097Z,475
2018-05-27T04:08:14.945Z,475
2018-05-27T04:09:22.152Z,474
2018-05-27T04:10:29.367Z,475
2018-05-27T04:11:36.575Z,475
2018-05-27T04:12:43.519Z,474
2018-05-27T04:13:50.719Z,475
2018-05-27T04:14:57.942Z,474
2018-05-27T04:16:05.156Z,475
2018-05-27T04:17:12.377Z,475
2018-05-27T04:18:19.042Z,474
2018-05-27T04:19:25.700Z,475
2018-05-27T04:20:32.912Z,474
2018-05-27T04:21:40.122Z,475
2018-05-27T04:22:47.330Z,474
2018-05-27T04:23:54.548Z,474
2018-05-27T04:25:01.759Z,474
2018-05-27T04:26:08.692Z,474
2018-05-27T04:27:15.627Z,474
2018-05-27T04:28:22.978Z,474
2018-05-27T04:29:30.287Z,473
2018-05-27T04:30:37.532Z,473
2018-05-27T04:31:44.741Z,473
2018-05-27T04:32:51.950Z,472
2018-05-27T04:33:58.607Z,471
2018-05-27T04:35:05.810Z,470
2018-05-27T04:36:13.024Z,470
2018-05-27T04:37:20.238Z,470
2018-05-27T04:38:27.451Z,470
2018-05-27T04:39:34.663Z,470
2018-05-27T04:40:41.874Z,469
2018-05-27T04:41:49.097Z,469
2018-05-27T04:42:56.324Z,469
2018-05-27T04:44:03.567Z,470
2018-05-27T04:45:10.779Z,469
2018-05-27T04:46:17.708Z,469
2018-05-27T04:47:24.919Z,469
2018-05-27T04:48:32.129Z,468
2018-05-27T04:49:39.346Z,468
2018-05-27T04:50:46.277Z,468
2018-05-27T04:51:53.493Z,468
2018-05-27T04:53:00.699Z,467
2018-05-27T04:54:07.905Z,467
2018-05-27T04:55:15.126Z,467
2018-05-27T04:56:22.339Z,467
2018-05-27T04:57:29.586Z,467
2018-05-27T04:58:36.798Z,467
2018-05-27T04:59:43.732Z,467
2018-05-27T05:00:50.945Z,467
2018-05-27T05:01:58.179Z,466
2018-05-27T05:03:05.387Z,466
2018-05-27T05:04:12.606Z,466
2018-05-27T05:05:19.539Z,465
2018-05-27T05:06:26.752Z,465
2018-05-27T05:07:33.993Z,465
2018-05-27T05:08:41.207Z,464
2018-05-27T05:09:48.420Z,463
2018-05-27T05:10:55.632Z,463
2018-05-27T05:12:02.845Z,462
2018-05-27T05:13:10.053Z,462
2018-05-27T05:14:17.299Z,462
2018-05-27T05:15:24.513Z,462
2018-05-27T05:16:31.735Z,462
2018-05-27T05:17:39.173Z,462
2018-05-27T05:18:46.388Z,462
2018-05-27T05:19:53.612Z,461
2018-05-27T05:21:00.835Z,460
2018-05-27T05:22:08.200Z,460
2018-05-27T05:23:15.460Z,459
2018-05-27T05:24:22.878Z,459
2018-05-27T05:25:30.167Z,459
2018-05-27T05:26:37.396Z,458
2018-05-27T05:27:44.808Z,458
2018-05-27T05:28:52.064Z,458
2018-05-27T05:29:59.306Z,457
2018-05-27T05:31:06.255Z,457
2018-05-27T05:32:13.467Z,456
2018-05-27T05:33:20.680Z,457
2018-05-27T05:34:27.618Z,456
2018-05-27T05:35:34.871Z,456
2018-05-27T05:36:42.080Z,456
2018-05-27T05:37:49.528Z,455
2018-05-27T05:38:56.737Z,456
2018-05-27T05:40:03.964Z,455
2018-05-27T05:41:11.179Z,455
2018-05-27T05:42:18.603Z,456
2018-05-27T05:43:25.821Z,456
2018-05-27T05:44:32.787Z,456
2018-05-27T05:45:39.720Z,456
2018-05-27T05:46:47.138Z,456
2018-05-27T05:47:54.373Z,456
2018-05-27T05:49:01.824Z,456
2018-05-27T05:50:09.047Z,456
2018-05-27T05:51:16.254Z,456
2018-05-27T05:52:23.465Z,456
2018-05-27T05:53:30.697Z,456
2018-05-27T05:54:37.905Z,456
2018-05-27T05:55:45.355Z,456
2018-05-27T05:56:52.565Z,456
2018-05-27T05:57:59.800Z,456
2018-05-27T05:59:07.020Z,456
2018-05-27T06:00:14.260Z,456
2018-05-27T06:01:21.475Z,456
2018-05-27T06:02:28.719Z,456
2018-05-27T06:03:35.662Z,456
2018-05-27T06:04:42.873Z,456
2018-05-27T06:05:50.082Z,456
2018-05-27T06:06:57.555Z,456
2018-05-27T06:08:04.763Z,456
2018-05-27T06:09:12.000Z,456
2018-05-27T06:10:19.214Z,456
2018-05-27T06:11:26.444Z,457
2018-05-27T06:12:33.652Z,456
2018-05-27T06:13:40.840Z,456
2018-05-27T06:14:48.056Z,457
2018-05-27T06:15:55.287Z,456
2018-05-27T06:17:02.249Z,456
2018-05-27T06:18:08.911Z,455
2018-05-27T06:19:15.853Z,456
2018-05-27T06:20:23.076Z,456
2018-05-27T06:21:30.299Z,455
2018-05-27T06:22:37.470Z,455
2018-05-27T06:23:44.680Z,454
2018-05-27T06:24:52.116Z,454
2018-05-27T06:25:59.330Z,453
2018-05-27T06:27:06.547Z,453
2018-05-27T06:28:13.759Z,453
2018-05-27T06:29:20.724Z,454
2018-05-27T06:30:27.936Z,453
2018-05-27T06:31:35.165Z,453
2018-05-27T06:32:42.125Z,452
2018-05-27T06:33:49.574Z,452
2018-05-27T06:34:56.784Z,452
2018-05-27T06:36:04.228Z,452
2018-05-27T06:37:11.451Z,452
2018-05-27T06:38:18.690Z,452
2018-05-27T06:39:25.954Z,452
2018-05-27T06:40:33.209Z,453
2018-05-27T06:41:40.495Z,453
2018-05-27T06:42:47.715Z,452
2018-05-27T06:43:54.663Z,452
2018-05-27T06:45:02.102Z,451
2018-05-27T06:46:09.320Z,450
2018-05-27T06:47:16.762Z,450
2018-05-27T06:48:24.301Z,450
2018-05-27T06:49:31.745Z,451
2018-05-27T06:50:38.961Z,451
2018-05-27T06:51:46.406Z,450
2018-05-27T06:52:53.620Z,449
2018-05-27T06:54:01.079Z,448
2018-05-27T06:55:08.307Z,448
2018-05-27T06:56:15.249Z,447
2018-05-27T06:57:22.464Z,448
2018-05-27T06:58:29.696Z,447
2018-05-27T06:59:36.919Z,447
2018-05-27T07:00:44.363Z,448
2018-05-27T07:01:51.624Z,448
2018-05-27T07:02:59.070Z,448
2018-05-27T07:04:06.294Z,449
2018-05-27T07:05:13.528Z,449
2018-05-27T07:06:20.746Z,449
2018-05-27T07:07:27.982Z,450
2018-05-27T07:08:35.196Z,449
2018-05-27T07:09:42.412Z,450
2018-05-27T07:10:49.636Z,450
2018-05-27T07:11:56.603Z,450
2018-05-27T07:13:03.815Z,450
2018-05-27T07:14:11.259Z,450
2018-05-27T07:15:18.477Z,450
2018-05-27T07:16:25.719Z,450
2018-05-27T07:17:32.962Z,450
2018-05-27T07:18:40.406Z,450
2018-05-27T07:19:47.628Z,449
2018-05-27T07:20:54.572Z,449
2018-05-27T07:22:01.782Z,449
2018-05-27T07:23:09.221Z,449
2018-05-27T07:24:16.442Z,449
2018-05-27T07:25:23.873Z,449
2018-05-27T07:26:30.815Z,448
2018-05-27T07:27:37.791Z,449
2018-05-27T07:28:45.012Z,448
2018-05-27T07:29:52.244Z,448
2018-05-27T07:30:58.914Z,449
2018-05-27T07:32:06.167Z,449
2018-05-27T07:33:13.383Z,448
2018-05-27T07:34:20.626Z,449
2018-05-27T07:35:27.850Z,449
2018-05-27T07:36:35.065Z,448
2018-05-27T07:37:42.284Z,447
2018-05-27T07:38:49.535Z,447
2018-05-27T07:39:56.753Z,446
2018-05-27T07:41:04.200Z,445
2018-05-27T07:42:11.416Z,445
2018-05-27T07:43:18.652Z,444
2018-05-27T07:44:25.637Z,445
2018-05-27T07:45:32.848Z,444
2018-05-27T07:46:40.222Z,446
2018-05-27T07:47:47.254Z,446
2018-05-27T07:48:54.465Z,446
2018-05-27T07:50:01.654Z,445
2018-05-27T07:51:08.879Z,446
2018-05-27T07:52:16.124Z,446
2018-05-27T07:53:23.343Z,445
2018-05-27T07:54:30.578Z,444
2018-05-27T07:55:37.790Z,444
2018-05-27T07:56:45.031Z,443
2018-05-27T07:57:52.250Z,444
2018-05-27T07:58:59.496Z,445
2018-05-27T08:00:06.717Z,444
2018-05-27T08:01:13.956Z,444
2018-05-27T08:02:21.202Z,443
2018-05-27T08:03:28.447Z,444
2018-05-27T08:04:35.670Z,446
2018-05-27T08:05:42.884Z,445
2018-05-27T08:06:50.097Z,445
2018-05-27T08:07:57.270Z,444
2018-05-27T08:09:04.494Z,443
2018-05-27T08:10:11.166Z,442
2018-05-27T08:11:18.382Z,441
2018-05-27T08:12:25.618Z,441
2018-05-27T08:13:32.837Z,442
2018-05-27T08:14:40.086Z,444
2018-05-27T08:15:47.309Z,444
2018-05-27T08:16:54.737Z,442
2018-05-27T08:18:01.965Z,441
2018-05-27T08:19:09.209Z,439
2018-05-27T08:20:16.205Z,440
2018-05-27T08:21:23.417Z,441
2018-05-27T08:22:30.630Z,440
2018-05-27T08:23:37.577Z,439
2018-05-27T08:24:44.805Z,441
2018-05-27T08:25:52.021Z,441
2018-05-27T08:26:59.246Z,443
2018-05-27T08:28:06.191Z,444
2018-05-27T08:29:13.403Z,443
2018-05-27T08:30:20.640Z,441
2018-05-27T08:31:27.864Z,439
2018-05-27T08:32:35.105Z,437
2018-05-27T08:33:42.318Z,438
2018-05-27T08:34:49.553Z,439
2018-05-27T08:35:56.775Z,441
2018-05-27T08:37:03.715Z,440
2018-05-27T08:38:10.932Z,439
2018-05-27T08:39:18.161Z,440
2018-05-27T08:40:25.376Z,440
2018-05-27T08:41:32.606Z,439
2018-05-27T08:42:39.824Z,440
2018-05-27T08:43:46.777Z,439
2018-05-27T08:44:53.991Z,438
2018-05-27T08:46:01.236Z,437
2018-05-27T08:47:08.191Z,440
2018-05-27T08:48:15.410Z,439
2018-05-27T08:49:22.627Z,436
2018-05-27T08:50:29.572Z,434
2018-05-27T08:51:36.788Z,433
2018-05-27T08:52:44.017Z,432
2018-05-27T08:53:51.235Z,431
2018-05-27T08:54:58.454Z,430
2018-05-27T08:56:05.700Z,430
2018-05-27T08:57:13.002Z,429
2018-05-27T08:58:20.280Z,428
2018-05-27T08:59:27.495Z,427
2018-05-27T09:00:34.747Z,427
2018-05-27T09:01:41.979Z,426
2018-05-27T09:02:49.216Z,429
2018-05-27T09:03:56.431Z,429
2018-05-27T09:05:03.711Z,431
2018-05-27T09:06:10.921Z,434
2018-05-27T09:07:18.154Z,434
2018-05-27T09:08:25.581Z,433
2018-05-27T09:09:32.596Z,430
2018-05-27T09:10:39.818Z,429
2018-05-27T09:11:46.760Z,429
2018-05-27T09:12:53.975Z,427
2018-05-27T09:14:01.194Z,426
2018-05-27T09:15:08.584Z,426
2018-05-27T09:16:15.872Z,426
2018-05-27T09:17:23.101Z,426
2018-05-27T09:18:30.321Z,427
2018-05-27T09:19:37.541Z,425
2018-05-27T09:20:44.774Z,423
2018-05-27T09:21:52.004Z,422
2018-05-27T09:22:59.229Z,421
2018-05-27T09:24:06.456Z,425
2018-05-27T09:25:13.678Z,425
2018-05-27T09:26:20.630Z,423
2018-05-27T09:27:27.898Z,424
2018-05-27T09:28:34.855Z,424
2018-05-27T09:29:42.071Z,424
2018-05-27T09:30:49.357Z,426
2018-05-27T09:31:56.622Z,427
2018-05-27T09:33:03.569Z,426
2018-05-27T09:34:10.796Z,427
2018-05-27T09:35:18.028Z,427
2018-05-27T09:36:25.247Z,426
2018-05-27T09:37:32.472Z,426
2018-05-27T09:38:39.708Z,427
2018-05-27T09:39:46.663Z,429
2018-05-27T09:40:53.898Z,429
2018-05-27T09:42:01.127Z,427
2018-05-27T09:43:08.348Z,427
2018-05-27T09:44:15.572Z,430
2018-05-27T09:45:23.053Z,428
2018-05-27T09:46:30.354Z,425
2018-05-27T09:47:37.600Z,425
2018-05-27T09:48:44.835Z,423
2018-05-27T09:49:52.051Z,426
2018-05-27T09:50:59.417Z,424
2018-05-27T09:52:06.630Z,419
2018-05-27T09:53:13.849Z,415
2018-05-27T09:54:21.068Z,415
2018-05-27T09:55:28.290Z,410
2018-05-27T09:56:35.515Z,415
2018-05-27T09:57:42.472Z,418
2018-05-27T09:58:49.709Z,416
2018-05-27T09:59:57.267Z,415
2018-05-27T10:01:04.199Z,414
2018-05-27T10:02:11.414Z,410
2018-05-27T10:03:18.629Z,410
2018-05-27T10:04:26.060Z,404
2018-05-27T10:05:33.304Z,405
2018-05-27T10:06:40.535Z,408
2018-05-27T10:07:47.757Z,415
2018-05-27T10:08:54.985Z,419
2018-05-27T10:10:01.950Z,414
2018-05-27T10:11:09.182Z,413
2018-05-27T10:12:16.416Z,412
2018-05-27T10:13:23.368Z,407
2018-05-27T10:14:30.620Z,405
2018-05-27T10:15:37.845Z,405
2018-05-27T10:16:45.084Z,408
2018-05-27T10:17:52.305Z,405
2018-05-27T10:18:59.711Z,405
2018-05-27T10:20:06.951Z,404
2018-05-27T10:21:14.179Z,401
2018-05-27T10:22:21.396Z,405
2018-05-27T10:23:28.619Z,408
2018-05-27T10:24:35.842Z,404
2018-05-27T10:25:42.811Z,402
2018-05-27T10:26:50.032Z,396
2018-05-27T10:27:57.246Z,390
2018-05-27T10:29:04.198Z,393
2018-05-27T10:30:11.411Z,398
2018-05-27T10:31:18.634Z,402
2018-05-27T10:32:25.858Z,409
2018-05-27T10:33:32.530Z,413
2018-05-27T10:34:39.750Z,421
2018-05-27T10:35:46.707Z,420
2018-05-27T10:36:53.650Z,421
2018-05-27T10:38:00.881Z,421
2018-05-27T10:39:08.230Z,422
2018-05-27T10:40:15.477Z,419
2018-05-27T10:41:22.723Z,416
2018-05-27T10:42:29.995Z,416
2018-05-27T10:43:37.231Z,410
2018-05-27T10:44:44.458Z,401
2018-05-27T10:45:51.680Z,398
2018-05-27T10:46:58.921Z,392
2018-05-27T10:48:06.180Z,389
2018-05-27T10:49:13.393Z,388
2018-05-27T10:50:20.621Z,390
2018-05-27T10:51:27.869Z,395
2018-05-27T10:52:35.087Z,396
2018-05-27T10:53:42.316Z,395
2018-05-27T10:54:49.571Z,399
2018-05-27T10:55:56.789Z,404
2018-05-27T10:57:04.034Z,399
2018-05-27T10:58:11.280Z,395
2018-05-27T10:59:18.508Z,396
2018-05-27T11:00:25.733Z,391
2018-05-27T11:01:32.783Z,388
2018-05-27T11:02:39.999Z,386
2018-05-27T11:03:47.235Z,385
2018-05-27T11:04:54.461Z,391
2018-05-27T11:06:01.763Z,396
2018-05-27T11:07:09.321Z,398
2018-05-27T11:08:16.544Z,395
2018-05-27T11:09:23.777Z,397
2018-05-27T11:10:30.739Z,400
2018-05-27T11:11:37.956Z,394
2018-05-27T11:12:45.185Z,390
2018-05-27T11:13:52.413Z,387
2018-05-27T11:14:59.652Z,385
2018-05-27T11:16:06.883Z,393
2018-05-27T11:17:14.109Z,389
2018-05-27T11:18:21.335Z,393
2018-05-27T11:19:28.577Z,400
2018-05-27T11:20:35.807Z,398
2018-05-27T11:21:43.040Z,390
2018-05-27T11:22:50.274Z,389
2018-05-27T11:23:57.497Z,398
2018-05-27T11:25:04.740Z,406
2018-05-27T11:26:11.959Z,406
2018-05-27T11:27:19.183Z,401
2018-05-27T11:28:26.402Z,399
2018-05-27T11:29:33.629Z,397
2018-05-27T11:30:40.577Z,393
2018-05-27T11:31:47.805Z,400
2018-05-27T11:32:55.029Z,404
2018-05-27T11:34:02.254Z,396
2018-05-27T11:35:09.473Z,390
2018-05-27T11:36:16.721Z,386
2018-05-27T11:37:23.945Z,390
2018-05-27T11:38:31.169Z,389
2018-05-27T11:39:38.396Z,387
2018-05-27T11:40:45.059Z,385
2018-05-27T11:41:52.014Z,383
2018-05-27T11:42:59.240Z,381
2018-05-27T11:44:06.464Z,382
2018-05-27T11:45:13.701Z,383
2018-05-27T11:46:20.655Z,382
2018-05-27T11:47:27.884Z,381
2018-05-27T11:48:35.163Z,380
2018-05-27T11:49:42.451Z,387
2018-05-27T11:50:49.695Z,401
2018-05-27T11:51:56.658Z,402
2018-05-27T11:53:03.595Z,400
2018-05-27T11:54:10.941Z,406
2018-05-27T11:55:18.155Z,398
2018-05-27T11:56:25.385Z,394
2018-05-27T11:57:32.595Z,385
2018-05-27T11:58:39.819Z,386
2018-05-27T11:59:46.781Z,387
2018-05-27T12:01:08.666Z,390
2018-05-27T12:02:15.896Z,395
2018-05-27T12:03:23.132Z,402
2018-05-27T12:04:30.364Z,409
2018-05-27T12:05:37.335Z,412
2018-05-27T12:06:44.557Z,415
2018-05-27T12:07:51.783Z,415
2018-05-27T12:08:59.153Z,407
2018-05-27T12:10:06.615Z,399
2018-05-27T12:11:13.858Z,398
2018-05-27T12:12:21.116Z,406
2018-05-27T12:13:28.363Z,397
2018-05-27T12:14:35.596Z,387
2018-05-27T12:15:42.878Z,389
2018-05-27T12:16:50.101Z,392
2018-05-27T12:17:57.339Z,398
2018-05-27T12:19:04.570Z,393
2018-05-27T12:20:11.790Z,397
2018-05-27T12:21:19.014Z,413
2018-05-27T12:22:26.232Z,425
2018-05-27T12:23:33.723Z,434
2018-05-27T12:24:40.692Z,430
2018-05-27T12:25:47.922Z,410
2018-05-27T12:26:55.142Z,396
2018-05-27T12:28:02.369Z,385
2018-05-27T12:29:09.612Z,386
2018-05-27T12:30:17.063Z,389
2018-05-27T12:31:24.284Z,387
2018-05-27T12:32:31.738Z,383
2018-05-27T12:33:38.959Z,383
2018-05-27T12:34:46.198Z,382
2018-05-27T12:35:53.147Z,383
2018-05-27T12:37:00.440Z,382
2018-05-27T12:38:07.667Z,381
2018-05-27T12:39:14.925Z,385
2018-05-27T12:40:22.140Z,384
2018-05-27T12:41:29.377Z,383
2018-05-27T12:42:36.072Z,383
2018-05-27T12:43:42.760Z,380
2018-05-27T12:44:49.731Z,380
2018-05-27T12:45:56.956Z,384
2018-05-27T12:47:04.173Z,391
2018-05-27T12:48:11.627Z,391
2018-05-27T12:49:18.852Z,394
2018-05-27T12:50:26.075Z,403
2018-05-27T12:51:33.532Z,405
2018-05-27T12:52:40.767Z,407
2018-05-27T12:53:47.987Z,408
2018-05-27T12:54:54.931Z,399
2018-05-27T12:56:02.154Z,393
2018-05-27T12:57:09.395Z,387
2018-05-27T12:58:16.347Z,383
2018-05-27T12:59:23.608Z,386
2018-05-27T13:00:30.830Z,388
2018-05-27T13:01:38.095Z,394
2018-05-27T13:02:45.322Z,406
2018-05-27T13:03:52.271Z,399
2018-05-27T13:04:59.494Z,405
2018-05-27T13:06:06.716Z,404
2018-05-27T13:07:13.947Z,407
2018-05-27T13:08:20.891Z,402
2018-05-27T13:09:28.111Z,396
2018-05-27T13:10:35.336Z,391
2018-05-27T13:11:42.560Z,398
2018-05-27T13:12:49.793Z,399
2018-05-27T13:13:56.734Z,394
2018-05-27T13:15:03.962Z,388
2018-05-27T13:16:11.203Z,384
2018-05-27T13:17:18.423Z,381
2018-05-27T13:18:25.658Z,378
2018-05-27T13:19:32.903Z,379
2018-05-27T13:20:39.878Z,380
2018-05-27T13:21:47.100Z,380
2018-05-27T13:22:54.072Z,379
2018-05-27T13:24:01.245Z,388
2018-05-27T13:25:08.670Z,386
2018-05-27T13:26:15.896Z,389
2018-05-27T13:27:23.111Z,403
2018-05-27T13:28:30.344Z,403
2018-05-27T13:29:37.575Z,404
2018-05-27T13:30:44.830Z,402
2018-05-27T13:31:52.050Z,404
2018-05-27T13:32:59.268Z,400
2018-05-27T13:34:06.494Z,405
2018-05-27T13:35:13.728Z,400
2018-05-27T13:36:20.944Z,391
2018-05-27T13:37:28.194Z,390
2018-05-27T13:38:35.160Z,391
2018-05-27T13:39:42.383Z,389
2018-05-27T13:40:49.815Z,385
2018-05-27T13:41:56.824Z,389
2018-05-27T13:43:04.068Z,388
2018-05-27T13:44:11.278Z,384
2018-05-27T13:45:18.234Z,387
2018-05-27T13:46:25.460Z,390
2018-05-27T13:47:32.691Z,404
2018-05-27T13:48:39.922Z,396
2018-05-27T13:49:47.146Z,389
2018-05-27T13:50:54.369Z,399
2018-05-27T13:52:01.588Z,403
2018-05-27T13:53:08.819Z,406
2018-05-27T13:54:16.060Z,409
2018-05-27T13:55:23.405Z,416
2018-05-27T13:56:30.613Z,422
2018-05-27T13:57:37.832Z,423
2018-05-27T13:58:45.056Z,418
2018-05-27T13:59:52.289Z,419
2018-05-27T14:00:59.510Z,419
2018-05-27T14:02:06.469Z,409
2018-05-27T14:03:13.692Z,405
2018-05-27T14:04:20.917Z,404
2018-05-27T14:05:27.869Z,405
2018-05-27T14:06:35.140Z,413
2018-05-27T14:07:42.120Z,414
2018-05-27T14:08:49.358Z,410
2018-05-27T14:09:56.743Z,400
2018-05-27T14:11:03.718Z,400
2018-05-27T14:12:10.940Z,399
2018-05-27T14:13:18.164Z,405
2018-05-27T14:14:25.386Z,407
2018-05-27T14:15:32.610Z,406
2018-05-27T14:16:39.825Z,406
2018-05-27T14:17:47.050Z,398
2018-05-27T14:18:54.281Z,394
2018-05-27T14:20:01.521Z,391
2018-05-27T14:21:08.751Z,386
2018-05-27T14:22:15.699Z,386
2018-05-27T14:23:22.381Z,386
2018-05-27T14:24:29.605Z,386
2018-05-27T14:25:36.838Z,393
2018-05-27T14:26:44.066Z,401
2018-05-27T14:27:51.288Z,403
2018-05-27T14:28:58.524Z,394
2018-05-27T14:30:05.749Z,394
2018-05-27T14:31:12.704Z,400
2018-05-27T14:32:19.656Z,407
2018-05-27T14:33:26.897Z,408
2018-05-27T14:34:34.129Z,415
2018-05-27T14:35:41.356Z,414
2018-05-27T14:36:48.604Z,406
2018-05-27T14:37:55.834Z,403
2018-05-27T14:39:03.063Z,406
2018-05-27T14:40:10.292Z,400
2018-05-27T14:41:17.531Z,396
2018-05-27T14:42:24.782Z,392
2018-05-27T14:43:32.019Z,389
2018-05-27T14:44:39.242Z,386
2018-05-27T14:45:46.470Z,384
2018-05-27T14:46:53.694Z,392
2018-05-27T14:48:00.919Z,390
2018-05-27T14:49:08.141Z,396
2018-05-27T14:50:15.387Z,408
2018-05-27T14:51:22.644Z,410
2018-05-27T14:52:29.874Z,415
2018-05-27T14:53:37.127Z,423
2018-05-27T14:54:44.355Z,421
2018-05-27T14:55:51.590Z,420
2018-05-27T14:56:58.830Z,421
2018-05-27T14:58:06.291Z,418
2018-05-27T14:59:13.578Z,417
2018-05-27T15:00:20.802Z,417
2018-05-27T15:01:28.026Z,418
2018-05-27T15:02:35.267Z,422
2018-05-27T15:03:42.499Z,427
2018-05-27T15:04:49.751Z,438
2018-05-27T15:05:56.976Z,441
2018-05-27T15:07:04.203Z,443
2018-05-27T15:08:11.453Z,445
2018-05-27T15:09:18.668Z,445
2018-05-27T15:10:25.898Z,445
2018-05-27T15:11:33.126Z,446
2018-05-27T15:12:40.361Z,447
2018-05-27T15:13:47.607Z,446
2018-05-27T15:14:54.553Z,443
2018-05-27T15:16:01.779Z,446
2018-05-27T15:17:08.998Z,445
2018-05-27T15:18:15.945Z,447
2018-05-27T15:19:23.385Z,449
2018-05-27T15:20:30.607Z,445
2018-05-27T15:21:37.826Z,442
2018-05-27T15:22:44.783Z,448
2018-05-27T15:23:52.025Z,447
2018-05-27T15:24:59.251Z,449
2018-05-27T15:26:06.474Z,449